Time;durP1;ratioP1;P1;durP2;ratioP2;P2;SDS_P1;SDS_P2;PMS_P1;PMS_P2;Temp;Humidity;BMP_temperature;BMP_pressure;BME280_temperature;BME280_humidity;BME280_pressure;Samples;Min_cycle;Max_cycle;Signal;HPM_P1;HPM_P2
2023/12/21 00:00:31;;;;;;;10.43;3.90;;;;;;;8.07;100.00;100759.38;5069627;28;20104;-36
2023/12/21 00:02:56;;;;;;;13.67;4.60;;;;;;;7.96;100.00;100731.28;5069614;28;20527;-36
2023/12/21 00:05:21;;;;;;;12.73;4.03;;;;;;;8.16;100.00;100756.19;5069471;28;20457;-36
2023/12/21 00:07:47;;;;;;;13.30;4.27;;;;;;;7.97;100.00;100704.13;5060950;28;20469;-36
2023/12/21 00:10:12;;;;;;;9.77;3.73;;;;;;;8.15;100.00;100733.00;5056285;28;20033;-36
2023/12/21 00:12:37;;;;;;;9.90;3.90;;;;;;;8.15;100.00;100724.94;5056700;28;20025;-36
2023/12/21 00:15:03;;;;;;;10.73;5.00;;;;;;;8.14;100.00;100723.25;5056270;28;20520;-36
2023/12/21 00:17:28;;;;;;;9.70;3.78;;;;;;;8.13;100.00;100710.84;5056640;28;20377;-36
2023/12/21 00:19:54;;;;;;;7.83;3.83;;;;;;;7.98;100.00;100683.41;5056050;28;20029;-36
2023/12/21 00:22:19;;;;;;;11.60;4.47;;;;;;;8.10;100.00;100702.34;5055776;28;20481;-36
2023/12/21 00:24:44;;;;;;;13.03;3.73;;;;;;;8.06;100.00;100699.31;5056274;28;20174;-36
2023/12/21 00:27:10;;;;;;;11.23;4.33;;;;;;;8.12;100.00;100694.91;5056468;28;20030;-36
2023/12/21 00:29:35;;;;;;;7.40;3.40;;;;;;;8.13;100.00;100694.69;5055914;28;20115;-36
2023/12/21 00:32:00;;;;;;;12.83;4.77;;;;;;;7.95;100.00;100656.91;5055890;28;20377;-36
2023/12/21 00:34:26;;;;;;;11.93;3.60;;;;;;;8.12;100.00;100678.75;5055519;28;20025;-36
2023/12/21 00:36:51;;;;;;;9.97;3.33;;;;;;;8.07;100.00;100667.81;5055469;28;20025;-36
2023/12/21 00:39:16;;;;;;;10.53;3.07;;;;;;;8.10;100.00;100680.81;5055725;28;20477;-36
2023/12/21 00:41:42;;;;;;;13.00;3.67;;;;;;;8.11;100.00;100674.41;5055979;28;20024;-36
2023/12/21 00:44:07;;;;;;;10.27;3.63;;;;;;;8.04;100.00;100657.47;5055517;28;20033;-36
2023/12/21 00:46:32;;;;;;;8.77;4.03;;;;;;;8.11;100.00;100660.94;5055930;28;20035;-36
2023/12/21 00:48:58;;;;;;;8.80;3.30;;;;;;;8.04;100.00;100641.31;5055529;28;20107;-36
2023/12/21 00:51:23;;;;;;;9.47;3.03;;;;;;;8.11;100.00;100661.75;5055547;28;20021;-36
2023/12/21 00:53:48;;;;;;;8.20;2.83;;;;;;;8.10;100.00;100648.50;5055478;28;20074;-36
2023/12/21 00:56:13;;;;;;;15.30;3.83;;;;;;;8.09;100.00;100642.28;5055906;28;20045;-36
2023/12/21 00:58:39;;;;;;;8.80;3.30;;;;;;;8.10;100.00;100643.09;5056205;28;20037;-36
2023/12/21 01:01:04;;;;;;;9.07;3.70;;;;;;;8.09;100.00;100636.91;5055629;28;20078;-37
2023/12/21 01:03:30;;;;;;;9.40;3.20;;;;;;;8.03;100.00;100620.81;5055742;28;20025;-36
2023/12/21 01:05:55;;;;;;;6.40;2.93;;;;;;;8.10;100.00;100629.63;5056040;28;20354;-36
2023/12/21 01:08:20;;;;;;;10.37;3.30;;;;;;;8.02;100.00;100606.53;5055130;28;20756;-36
2023/12/21 01:10:45;;;;;;;12.37;3.50;;;;;;;8.10;100.00;100613.47;5054938;28;20432;-36
2023/12/21 01:13:11;;;;;;;9.57;3.87;;;;;;;8.02;100.00;100601.13;5055546;28;20381;-36
2023/12/21 01:15:36;;;;;;;10.80;3.40;;;;;;;8.10;100.00;100594.63;5055003;28;20224;-36
2023/12/21 01:18:02;;;;;;;11.17;3.40;;;;;;;8.09;100.00;100596.50;5054846;28;20036;-36
2023/12/21 01:20:27;;;;;;;11.73;3.35;;;;;;;8.05;100.00;100586.38;5054096;28;20082;-36
2023/12/21 01:22:53;;;;;;;10.90;3.53;;;;;;;8.10;100.00;100603.56;5055443;28;20021;-36
2023/12/21 01:25:18;;;;;;;12.33;3.80;;;;;;;8.11;100.00;100599.00;5054862;28;20029;-36
2023/12/21 01:27:43;;;;;;;9.50;3.83;;;;;;;8.11;100.00;100597.13;5055340;28;20063;-36
2023/12/21 01:30:09;;;;;;;8.93;3.13;;;;;;;7.99;100.00;100571.94;5054747;28;20035;-36
2023/12/21 01:32:35;;;;;;;11.50;3.90;;;;;;;8.12;100.00;100587.16;5054699;28;20489;-36
2023/12/21 01:35:00;;;;;;;7.27;3.57;;;;;;;8.12;100.00;100579.09;5054626;28;20083;-36
2023/12/21 01:37:26;;;;;;;11.30;4.03;;;;;;;8.13;100.00;100572.66;5055405;28;20117;-36
2023/12/21 01:39:51;;;;;;;11.60;4.20;;;;;;;8.12;100.00;100571.84;5055055;28;20029;-36
2023/12/21 01:42:16;;;;;;;9.90;3.90;;;;;;;8.14;100.00;100582.38;5054820;28;20491;-36
2023/12/21 01:44:42;;;;;;;7.77;3.20;;;;;;;8.14;100.00;100582.38;5054161;28;20031;-36
2023/12/21 01:47:09;;;;;;;12.57;3.83;;;;;;;8.15;100.00;100575.94;5054512;28;20346;-36
2023/12/21 01:49:34;;;;;;;10.48;3.53;;;;;;;8.14;100.00;100561.66;5054376;28;20110;-36
2023/12/21 01:51:59;;;;;;;9.38;3.25;;;;;;;8.16;100.00;100559.56;5054377;28;20060;-36
2023/12/21 01:54:25;;;;;;;11.40;4.07;;;;;;;8.17;100.00;100549.63;5054336;28;20111;-36
2023/12/21 01:56:50;;;;;;;10.80;3.40;;;;;;;8.16;100.00;100543.41;5054777;28;20040;-36
2023/12/21 01:59:16;;;;;;;8.38;3.53;;;;;;;8.11;100.00;100539.75;5054242;28;20025;-36
2023/12/21 02:01:42;;;;;;;10.23;3.53;;;;;;;8.17;100.00;100552.31;5054727;28;20117;-36
2023/12/21 02:04:08;;;;;;;10.33;3.47;;;;;;;8.17;100.00;100565.78;5053766;28;20473;-37
2023/12/21 02:06:33;;;;;;;;;;;;;;;8.21;100.00;100564.31;5054835;28;20029;-36
2023/12/21 02:08:59;;;;;;;8.77;3.63;;;;;;;8.18;100.00;100562.84;5054540;28;19909;-36
2023/12/21 02:11:24;;;;;;;8.65;3.30;;;;;;;8.11;100.00;100548.66;5054532;28;20032;-37
2023/12/21 02:13:49;;;;;;;9.73;3.67;;;;;;;8.18;100.00;100573.63;5053889;28;20107;-37
2023/12/21 02:16:19;;;;;;;10.47;3.70;;;;;;;8.19;100.00;100558.28;5054322;28;20056;-37
2023/12/21 02:18:45;;;;;;;13.73;4.75;;;;;;;8.18;100.00;100549.41;5053775;28;20072;-36
2023/12/21 02:21:12;;;;;;;9.50;3.85;;;;;;;8.18;100.00;100546.69;5053763;28;20039;-36
2023/12/21 02:23:40;;;;;;;14.88;4.07;;;;;;;8.16;100.00;100542.59;5054233;28;20363;-36
2023/12/21 02:26:06;;;;;;;13.93;4.97;;;;;;;8.12;100.00;100523.34;5054000;28;20091;-36
2023/12/21 02:28:31;;;;;;;12.93;4.18;;;;;;;8.18;100.00;100524.34;5053986;28;20040;-36
2023/12/21 02:30:56;;;;;;;14.93;4.23;;;;;;;8.18;100.00;100524.34;5053975;28;20083;-36
2023/12/21 02:33:23;;;;;;;15.13;4.13;;;;;;;8.17;100.00;100504.66;5053604;28;20029;-36
2023/12/21 02:35:48;;;;;;;11.40;3.88;;;;;;;8.17;100.00;100498.44;5053502;28;20078;-36
2023/12/21 02:38:13;;;;;;;11.63;4.67;;;;;;;8.12;100.00;100498.28;5053545;28;20115;-37
2023/12/21 02:40:39;;;;;;;13.47;3.93;;;;;;;8.18;100.00;100505.47;5053624;28;20392;-36
2023/12/21 02:43:04;;;;;;;11.93;3.77;;;;;;;8.17;100.00;100498.44;5053193;28;20033;-36
2023/12/21 02:45:29;;;;;;;11.90;4.23;;;;;;;8.04;100.00;100471.66;5054054;28;20040;-36
2023/12/21 02:47:54;;;;;;;14.70;3.43;;;;;;;8.15;100.00;100497.84;5053484;28;20031;-36
2023/12/21 02:50:20;;;;;;;11.33;3.67;;;;;;;8.17;100.00;100499.28;5053912;28;20021;-36
2023/12/21 02:52:45;;;;;;;10.63;3.90;;;;;;;8.17;100.00;100495.75;5053337;28;20104;-37
2023/12/21 02:55:11;;;;;;;13.00;3.60;;;;;;;8.16;100.00;100492.25;5053664;28;20073;-37
2023/12/21 02:57:36;;;;;;;11.63;3.33;;;;;;;8.17;100.00;100482.28;5053270;28;20079;-36
2023/12/21 03:00:01;;;;;;;12.50;3.40;;;;;;;8.18;100.00;100471.28;5054106;28;20044;-36
2023/12/21 03:02:27;;;;;;;10.95;3.22;;;;;;;8.12;100.00;100474.88;5053877;28;20032;-37
2023/12/21 03:04:52;;;;;;;13.10;3.47;;;;;;;8.19;100.00;100481.00;5053072;28;20091;-37
2023/12/21 03:07:18;;;;;;;10.90;3.53;;;;;;;8.20;100.00;100476.47;5053621;28;20107;-36
2023/12/21 03:09:43;;;;;;;11.30;3.17;;;;;;;8.21;100.00;100461.94;5053531;28;20032;-36
2023/12/21 03:12:08;;;;;;;12.20;3.83;;;;;;;8.13;100.00;100438.00;5053471;28;20376;-36
2023/12/21 03:14:34;;;;;;;11.13;3.22;;;;;;;8.16;100.00;100437.56;5053494;28;20275;-36
2023/12/21 03:16:59;;;;;;;12.57;3.50;;;;;;;8.13;100.00;100414.56;5053705;28;20029;-36
2023/12/21 03:19:24;;;;;;;7.97;2.93;;;;;;;8.19;100.00;100407.47;5053209;28;20389;-36
2023/12/21 03:21:50;;;;;;;15.53;3.80;;;;;;;8.19;100.00;100400.19;5053691;28;20025;-36
2023/12/21 03:24:15;;;;;;;12.93;3.33;;;;;;;8.21;100.00;100395.44;5052811;28;20112;-36
2023/12/21 03:26:43;;;;;;;16.70;5.27;;;;;;;8.20;100.00;100374.13;5053619;28;20028;-36
2023/12/21 03:29:08;;;;;;;13.90;3.83;;;;;;;8.19;100.00;100375.97;5052999;28;20458;-37
2023/12/21 03:31:33;;;;;;;15.20;4.27;;;;;;;8.20;100.00;100369.53;5053407;28;20025;-36
2023/12/21 03:33:59;;;;;;;14.63;4.40;;;;;;;8.21;100.00;100383.84;5053050;28;20483;-36
2023/12/21 03:36:26;;;;;;;11.37;3.77;;;;;;;8.20;100.00;100379.50;5053206;28;20066;-36
2023/12/21 03:38:51;;;;;;;11.82;4.10;;;;;;;8.21;100.00;100365.78;5052973;28;20111;-36
2023/12/21 03:41:17;;;;;;;14.47;3.90;;;;;;;8.22;100.00;100358.53;5053270;28;20057;-36
2023/12/21 03:43:42;;;;;;;11.87;4.53;;;;;;;8.19;100.00;100354.41;5056085;28;20102;-36
2023/12/21 03:46:09;;;;;;;10.50;3.80;;;;;;;8.22;100.00;100362.03;5057257;28;20044;-36
2023/12/21 03:48:34;;;;;;;13.50;4.22;;;;;;;8.16;100.00;100338.72;5056352;28;20067;-36
2023/12/21 03:51:00;;;;;;;11.57;4.20;;;;;;;8.19;100.00;100334.72;5056295;28;20114;-36
2023/12/21 03:53:25;;;;;;;12.00;3.83;;;;;;;8.26;100.00;100352.47;5056635;28;20029;-36
2023/12/21 03:55:50;;;;;;;14.90;4.23;;;;;;;8.25;100.00;100348.13;5056253;28;20092;-36
2023/12/21 03:58:16;;;;;;;13.13;4.37;;;;;;;8.26;100.00;100336.31;5056486;28;20033;-36
2023/12/21 04:00:41;;;;;;;8.43;3.70;;;;;;;8.21;100.00;100313.81;5057297;28;20033;-36
2023/12/21 04:03:06;;;;;;;9.27;3.60;;;;;;;8.26;100.00;100320.13;5056697;28;20033;-36
2023/12/21 04:05:32;;;;;;;16.37;4.00;;;;;;;8.27;100.00;100329.03;5057159;28;20112;-36
2023/12/21 04:07:57;;;;;;;17.00;4.93;;;;;;;8.28;100.00;100325.28;5056320;28;20365;-36
2023/12/21 04:10:22;;;;;;;15.73;4.00;;;;;;;8.31;100.00;100327.53;5056569;28;20378;-36
2023/12/21 04:12:48;;;;;;;13.57;4.37;;;;;;;8.32;100.00;100321.09;5056520;28;20029;-36
2023/12/21 04:15:13;;;;;;;15.00;4.07;;;;;;;8.28;100.00;100284.88;5056097;28;20031;-36
2023/12/21 04:17:38;;;;;;;16.50;3.90;;;;;;;8.38;100.00;100295.97;5056387;28;20025;-36
2023/12/21 04:20:05;;;;;;;14.23;3.83;;;;;;;8.38;100.00;100293.25;5055859;28;20298;-36
2023/12/21 04:22:30;;;;;;;13.32;4.32;;;;;;;8.36;100.00;100273.81;5056541;28;20033;-36
2023/12/21 04:24:56;;;;;;;15.07;4.67;;;;;;;8.41;100.00;100281.22;5056288;28;20091;-36
2023/12/21 04:27:21;;;;;;;14.47;4.13;;;;;;;8.44;100.00;100283.44;5055877;28;20025;-36
2023/12/21 04:29:46;;;;;;;15.77;4.50;;;;;;;8.45;100.00;100269.75;5055815;28;20052;-36
2023/12/21 04:32:12;;;;;;;12.70;4.20;;;;;;;8.48;100.00;100271.16;5056665;28;20260;-36
2023/12/21 04:34:37;;;;;;;13.93;4.20;;;;;;;8.45;100.00;100242.81;5055764;28;20473;-36
2023/12/21 04:37:03;;;;;;;12.03;4.80;;;;;;;8.54;100.00;100228.97;5055499;28;20460;-36
2023/12/21 04:39:28;;;;;;;11.15;4.15;;;;;;;8.59;100.00;100237.19;5055990;28;20055;-36
2023/12/21 04:41:54;;;;;;;13.97;5.30;;;;;;;8.51;100.00;100214.94;5056258;28;20040;-36
2023/12/21 04:44:19;;;;;;;14.77;4.40;;;;;;;8.56;100.00;100222.31;5055875;28;20524;-36
2023/12/21 04:46:49;;;;;;;13.67;4.60;;;;;;;8.65;100.00;100230.88;5056486;28;20025;-36
2023/12/21 04:49:15;;;;;;;13.80;4.68;;;;;;;8.67;100.00;100216.09;5055450;28;20303;-36
2023/12/21 04:51:40;;;;;;;12.98;4.40;;;;;;;8.58;100.00;100197.81;5055820;28;20063;-36
2023/12/21 04:54:06;;;;;;;16.63;4.00;;;;;;;8.71;100.00;100202.97;5055028;28;20061;-36
2023/12/21 04:56:31;;;;;;;11.57;4.13;;;;;;;8.74;100.00;100197.13;5055707;28;20057;-36
2023/12/21 04:58:57;;;;;;;13.57;4.50;;;;;;;8.77;100.00;100183.16;5056202;28;20074;-36
2023/12/21 05:01:22;;;;;;;11.47;3.80;;;;;;;8.79;100.00;100183.78;5055431;28;20025;-36
2023/12/21 05:03:47;;;;;;;7.90;3.00;;;;;;;8.80;100.00;100171.94;5055763;28;20271;-37
2023/12/21 05:06:13;;;;;;;9.23;3.30;;;;;;;8.82;100.00;100161.72;5054987;28;20068;-36
2023/12/21 05:08:38;;;;;;;8.98;3.30;;;;;;;8.77;100.00;100164.28;5054872;28;20032;-36
2023/12/21 05:11:04;;;;;;;11.27;3.73;;;;;;;8.83;100.00;100167.94;5054973;28;20439;-36
2023/12/21 05:13:29;;;;;;;11.02;3.50;;;;;;;8.84;100.00;100181.19;5055135;28;20029;-36
2023/12/21 05:15:54;;;;;;;12.83;3.63;;;;;;;8.85;100.00;100171.22;5054802;28;20389;-36
2023/12/21 05:18:20;;;;;;;11.30;3.23;;;;;;;8.84;100.00;100167.72;5055562;28;20275;-36
2023/12/21 05:20:45;;;;;;;10.37;3.20;;;;;;;8.81;100.00;100175.44;5054928;28;20017;-36
2023/12/21 05:23:10;;;;;;;10.93;3.00;;;;;;;8.88;100.00;100184.22;5054586;28;20036;-36
2023/12/21 05:25:36;;;;;;;7.80;3.00;;;;;;;8.89;100.00;100167.81;5055452;28;20263;-36
2023/12/21 05:28:01;;;;;;;10.67;2.90;;;;;;;8.91;100.00;100148.69;5055629;28;20056;-36
2023/12/21 05:30:26;;;;;;;11.57;2.70;;;;;;;8.90;100.00;100139.78;5055045;28;20056;-36
2023/12/21 05:32:52;;;;;;;9.77;2.97;;;;;;;8.93;100.00;100149.28;5054767;28;20029;-36
2023/12/21 05:35:17;;;;;;;9.90;2.60;;;;;;;8.79;100.00;100123.66;5054502;28;20033;-36
2023/12/21 05:37:43;;;;;;;9.65;2.85;;;;;;;8.92;100.00;100144.94;5054633;28;20029;-36
2023/12/21 05:40:09;;;;;;;10.03;2.87;;;;;;;8.87;100.00;100129.47;5054298;28;20029;-36
2023/12/21 05:42:34;;;;;;;9.68;2.42;;;;;;;8.91;100.00;100132.53;5054247;28;20029;-36
2023/12/21 05:44:59;;;;;;;10.47;3.07;;;;;;;8.92;100.00;100140.38;5054452;28;20029;-36
2023/12/21 05:47:25;;;;;;;8.53;2.10;;;;;;;8.93;100.00;100147.41;5054751;28;20040;-36
2023/12/21 05:49:50;;;;;;;8.60;2.22;;;;;;;8.97;100.00;100129.69;5054156;28;20032;-36
2023/12/21 05:52:15;;;;;;;9.03;2.53;;;;;;;8.93;100.00;100136.63;5054406;28;20025;-37
2023/12/21 05:54:41;;;;;;;7.07;2.13;;;;;;;8.99;100.00;100143.78;5054252;28;20271;-37
2023/12/21 05:57:08;;;;;;;7.20;2.17;;;;;;;9.03;100.00;100157.59;5054497;28;20496;-36
2023/12/21 05:59:33;;;;;;;5.95;2.05;;;;;;;9.03;100.00;100144.13;5054473;28;20068;-37
2023/12/21 06:01:58;;;;;;;6.00;1.83;;;;;;;8.89;100.00;100121.97;5054145;28;20479;-36
2023/12/21 06:04:24;;;;;;;7.20;2.10;;;;;;;8.99;100.00;100140.25;5053669;28;20032;-36
2023/12/21 06:06:49;;;;;;;8.63;2.03;;;;;;;9.00;100.00;100137.31;5054037;28;20255;-36
2023/12/21 06:09:15;;;;;;;9.53;2.57;;;;;;;9.02;100.00;100139.75;5053971;28;20115;-36
2023/12/21 06:11:41;;;;;;;10.45;2.30;;;;;;;9.01;100.00;100125.47;5054503;28;20025;-36
2023/12/21 06:14:06;;;;;;;7.97;2.45;;;;;;;8.96;100.00;100125.34;5053928;28;20446;-36
2023/12/21 06:16:32;;;;;;;7.70;1.88;;;;;;;8.95;100.00;100129.13;5053534;28;20067;-36
2023/12/21 06:18:59;;;;;;;9.67;2.90;;;;;;;8.89;100.00;100110.38;5053502;28;20065;-36
2023/12/21 06:21:24;;;;;;;7.88;2.30;;;;;;;8.84;100.00;100094.91;5054377;28;20025;-36
2023/12/21 06:23:50;;;;;;;6.50;1.80;;;;;;;8.77;100.00;100075.34;5053734;28;20017;-36
2023/12/21 06:26:16;;;;;;;6.00;2.43;;;;;;;8.82;100.00;100086.22;5052485;28;20473;-36
2023/12/21 06:28:41;;;;;;;12.00;2.80;;;;;;;8.80;100.00;100091.06;5053438;28;20279;-36
2023/12/21 06:31:06;;;;;;;7.93;2.37;;;;;;;8.79;100.00;100096.69;5054218;28;20040;-36
2023/12/21 06:33:32;;;;;;;7.13;3.00;;;;;;;8.77;100.00;100094.22;5053624;28;20039;-36
2023/12/21 06:35:57;;;;;;;8.47;2.57;;;;;;;8.79;100.00;100084.03;5053254;28;20381;-37
2023/12/21 06:38:22;;;;;;;8.33;2.40;;;;;;;8.71;100.00;100070.91;5053341;28;20264;-37
2023/12/21 06:40:50;;;;;;;7.53;2.90;;;;;;;8.75;100.00;100088.25;5053570;28;20056;-37
2023/12/21 06:43:15;;;;;;;8.88;2.78;;;;;;;8.80;100.00;100090.22;5053797;28;20469;-37
2023/12/21 06:45:41;;;;;;;4.67;2.43;;;;;;;8.80;100.00;100087.53;5053573;28;20116;-37
2023/12/21 06:48:06;;;;;;;8.20;2.80;;;;;;;8.79;100.00;100073.25;5053436;28;20105;-37
2023/12/21 06:50:32;;;;;;;7.55;2.42;;;;;;;8.67;100.00;100053.56;5052812;28;20037;-37
2023/12/21 06:52:57;;;;;;;6.85;2.40;;;;;;;8.73;100.00;100056.13;5053731;28;20033;-37
2023/12/21 06:55:22;;;;;;;8.07;2.57;;;;;;;8.79;100.00;100050.88;5052976;28;20558;-37
2023/12/21 06:57:48;;;;;;;8.77;2.63;;;;;;;8.76;100.00;100033.28;5053690;28;20381;-37
2023/12/21 07:00:13;;;;;;;9.93;2.83;;;;;;;8.74;100.00;100035.41;5053063;28;20516;-37
2023/12/21 07:02:39;;;;;;;7.68;2.60;;;;;;;8.72;100.00;100026.72;5054016;28;20361;-36
2023/12/21 07:05:05;;;;;;;7.27;2.40;;;;;;;8.70;100.00;100007.28;5053537;28;20033;-36
2023/12/21 07:07:30;;;;;;;8.63;2.28;;;;;;;8.77;100.00;100014.16;5054105;28;20152;-36
2023/12/21 07:09:55;;;;;;;8.70;2.30;;;;;;;8.76;100.00;99993.66;5053503;28;20029;-36
2023/12/21 07:12:21;;;;;;;8.20;2.63;;;;;;;8.78;100.00;100004.19;5053262;28;20028;-36
2023/12/21 07:14:46;;;;;;;7.82;2.38;;;;;;;8.82;100.00;99999.97;5052882;28;20025;-36
2023/12/21 07:17:12;;;;;;;9.80;2.30;;;;;;;8.84;100.00;99997.84;5053954;28;20416;-36
2023/12/21 07:19:38;;;;;;;10.80;2.47;;;;;;;8.87;100.00;99996.53;5057171;28;20075;-36
2023/12/21 07:22:04;;;;;;;5.68;2.17;;;;;;;8.89;100.00;99994.44;5057268;28;20267;-36
2023/12/21 07:24:30;;;;;;;6.47;2.08;;;;;;;8.92;100.00;99980.47;5056807;28;20480;-36
2023/12/21 07:26:56;;;;;;;8.25;2.40;;;;;;;8.93;100.00;99974.00;5057118;28;20025;-36
2023/12/21 07:29:21;;;;;;;8.00;2.60;;;;;;;8.95;100.00;99966.50;5057298;28;20033;-36
2023/12/21 07:31:46;;;;;;;7.43;2.27;;;;;;;8.97;100.00;99967.06;5057324;28;20106;-36
2023/12/21 07:34:12;;;;;;;8.10;2.00;;;;;;;8.90;100.00;99952.94;5056671;28;20032;-36
2023/12/21 07:36:37;;;;;;;7.80;2.07;;;;;;;9.01;100.00;99957.44;5057143;28;20067;-36
2023/12/21 07:39:04;;;;;;;7.07;2.43;;;;;;;9.05;100.00;99947.00;5056798;28;20445;-36
2023/12/21 07:41:30;;;;;;;7.85;1.85;;;;;;;9.08;100.00;99939.25;5056477;28;20025;-36
2023/12/21 07:43:55;;;;;;;8.90;2.47;;;;;;;9.03;100.00;99941.84;5056445;28;20120;-36
2023/12/21 07:46:21;;;;;;;6.47;1.73;;;;;;;9.10;100.00;99955.19;5057039;28;20029;-36
2023/12/21 07:48:46;;;;;;;7.97;2.05;;;;;;;9.11;100.00;99948.72;5056696;28;20197;-36
2023/12/21 07:51:12;;;;;;;6.53;1.80;;;;;;;9.12;100.00;99944.94;5056708;28;20020;-36
2023/12/21 07:53:37;;;;;;;7.43;2.70;;;;;;;9.11;100.00;99944.13;5056636;28;20374;-36
2023/12/21 07:56:03;;;;;;;8.75;2.80;;;;;;;9.09;100.00;99923.88;5056149;28;20099;-36
2023/12/21 07:58:28;;;;;;;8.95;2.20;;;;;;;9.09;100.00;99929.28;5055211;28;20029;-36
2023/12/21 08:00:55;;;;;;;6.37;1.97;;;;;;;9.07;100.00;99931.38;5056518;28;20032;-36
2023/12/21 08:03:21;;;;;;;5.47;2.00;;;;;;;9.04;100.00;99924.63;5056481;28;20274;-36
2023/12/21 08:05:46;;;;;;;7.37;2.50;;;;;;;9.02;100.00;99919.44;5056725;28;20037;-36
2023/12/21 08:08:11;;;;;;;7.00;1.80;;;;;;;8.99;100.00;99914.56;5056350;28;20038;-36
2023/12/21 08:10:37;;;;;;;5.83;1.70;;;;;;;8.97;100.00;99919.34;5056320;28;20036;-36
2023/12/21 08:13:02;;;;;;;6.23;2.00;;;;;;;8.88;100.00;99917.28;5056012;28;20036;-36
2023/12/21 08:15:28;;;;;;;6.78;1.90;;;;;;;8.96;100.00;99919.59;5056422;28;20033;-36
2023/12/21 08:17:56;;;;;;;4.63;1.70;;;;;;;8.94;100.00;99917.16;5056170;28;20052;-36
2023/12/21 08:20:22;;;;;;;4.47;1.67;;;;;;;8.95;100.00;99916.09;5056646;28;20259;-36
2023/12/21 08:22:48;;;;;;;7.55;2.08;;;;;;;8.95;100.00;99896.41;5055778;28;20025;-36
2023/12/21 08:25:13;;;;;;;4.53;1.70;;;;;;;8.94;100.00;99900.97;5056041;28;20021;-36
2023/12/21 08:27:41;;;;;;;4.80;1.42;;;;;;;8.94;100.00;99903.69;5055942;28;20274;-36
2023/12/21 08:30:07;;;;;;;3.92;1.85;;;;;;;8.87;100.00;99889.50;5056346;28;20094;-36
2023/12/21 08:32:33;;;;;;;4.13;1.58;;;;;;;8.96;100.00;99895.34;5055881;28;20487;-36
2023/12/21 08:34:58;;;;;;;6.63;1.70;;;;;;;8.96;100.00;99881.84;5055769;28;20043;-36
2023/12/21 08:37:23;;;;;;;4.23;1.60;;;;;;;8.96;100.00;99898.03;5055788;28;20082;-36
2023/12/21 08:39:50;;;;;;;9.67;2.53;;;;;;;8.97;100.00;99888.88;5055697;28;20108;-36
2023/12/21 08:42:15;;;;;;;4.00;1.45;;;;;;;8.99;100.00;99897.56;5056238;28;20031;-36
2023/12/21 08:44:40;;;;;;;5.20;1.50;;;;;;;9.00;100.00;99883.00;5055367;28;20534;-36
2023/12/21 08:47:06;;;;;;;5.43;1.73;;;;;;;8.94;100.00;99867.81;5056228;28;20373;-36
2023/12/21 08:49:31;;;;;;;5.10;1.95;;;;;;;9.00;100.00;99873.03;5055571;28;20025;-36
2023/12/21 08:51:57;;;;;;;5.82;2.17;;;;;;;9.03;100.00;99852.88;5056136;28;20373;-36
2023/12/21 08:54:22;;;;;;;3.15;1.40;;;;;;;9.03;100.00;99860.97;5055400;28;20063;-36
2023/12/21 08:56:50;;;;;;;5.07;1.60;;;;;;;9.06;100.00;99868.53;5055081;28;20061;-36
2023/12/21 08:59:16;;;;;;;6.72;1.98;;;;;;;9.06;100.00;99857.75;5055515;28;20071;-36
2023/12/21 09:01:41;;;;;;;6.95;1.67;;;;;;;9.06;100.00;99846.16;5055629;28;20037;-36
2023/12/21 09:04:07;;;;;;;6.63;1.70;;;;;;;9.04;100.00;99824.84;5055129;28;20033;-36
2023/12/21 09:06:32;;;;;;;7.13;1.80;;;;;;;9.12;100.00;99828.97;5055790;28;20082;-36
2023/12/21 09:08:58;;;;;;;7.07;2.42;;;;;;;9.11;100.00;99830.88;5055749;28;20032;-36
2023/12/21 09:11:25;;;;;;;4.57;1.58;;;;;;;9.21;100.00;99841.00;5054855;28;20040;-36
2023/12/21 09:13:50;;;;;;;5.05;1.35;;;;;;;9.23;100.00;99841.59;5055085;28;20033;-36
2023/12/21 09:16:17;;;;;;;4.80;1.50;;;;;;;9.23;100.00;99836.19;5055028;28;20056;-36
2023/12/21 09:18:46;;;;;;;7.38;1.48;;;;;;;9.33;100.00;99828.25;5054632;28;20032;-36
2023/12/21 09:21:11;;;;;;;7.43;1.67;;;;;;;9.30;100.00;99831.44;5054702;28;20029;-36
2023/12/21 09:23:37;;;;;;;4.75;1.60;;;;;;;9.40;100.00;99823.47;5054921;28;20037;-36
2023/12/21 09:26:03;;;;;;;;;;;;;;;9.43;100.00;99812.19;5054988;28;20495;-36
2023/12/21 09:28:28;;;;;;;5.85;1.30;;;;;;;9.35;100.00;99793.72;5055590;28;19991;-36
2023/12/21 09:30:55;;;;;;;4.93;1.48;;;;;;;9.46;100.00;99805.47;5055612;28;20040;-36
2023/12/21 09:33:20;;;;;;;8.65;1.63;;;;;;;9.44;100.00;99805.72;5054337;28;20033;-36
2023/12/21 09:35:46;;;;;;;5.30;1.40;;;;;;;9.48;100.00;99808.75;5054317;28;20025;-36
2023/12/21 09:38:11;;;;;;;6.43;1.30;;;;;;;9.49;100.00;99808.50;5054624;28;20120;-36
2023/12/21 09:40:36;;;;;;;4.63;1.48;;;;;;;9.51;100.00;99809.06;5053782;28;20114;-36
2023/12/21 09:43:05;;;;;;;6.90;1.87;;;;;;;9.58;100.00;99824.28;5055067;28;20112;-36
2023/12/21 09:45:31;;;;;;;3.75;1.20;;;;;;;9.57;100.00;99798.34;5054598;28;20436;-36
2023/12/21 09:47:58;;;;;;;6.55;2.40;;;;;;;9.66;100.00;99810.31;5054413;28;20029;-36
2023/12/21 09:50:25;;;;;;;5.03;1.20;;;;;;;9.70;100.00;99781.78;5054962;28;20028;-36
2023/12/21 09:52:51;;;;;;;5.30;1.13;;;;;;;9.79;100.00;99793.75;5054581;28;20384;-36
2023/12/21 09:55:19;;;;;;;7.70;1.70;;;;;;;9.85;100.00;99789.25;5053966;28;20111;-36
2023/12/21 09:57:46;;;;;;;6.15;1.52;;;;;;;9.90;100.00;99792.81;5054531;28;20461;-36
2023/12/21 10:00:12;;;;;;;8.63;2.00;;;;;;;9.99;100.00;99794.00;5054208;28;20037;-36
2023/12/21 10:02:37;;;;;;;5.85;1.60;;;;;;;9.93;100.00;99786.09;5053845;28;20082;-36
2023/12/21 10:05:06;;;;;;;6.25;1.80;;;;;;;10.02;100.00;99798.09;5054100;28;20025;-36
2023/12/21 10:07:33;;;;;;;7.30;1.98;;;;;;;10.02;100.00;99784.59;5054041;28;20420;-38
2023/12/21 10:09:58;;;;;;;7.05;1.77;;;;;;;10.08;100.00;99775.47;5053956;28;20032;-36
2023/12/21 10:12:24;;;;;;;4.80;1.25;;;;;;;10.09;100.00;99793.31;5054054;28;20492;-36
2023/12/21 10:14:59;;;;;;;5.18;1.30;;;;;;;10.07;100.00;99790.88;5053956;28;20068;-36
2023/12/21 10:17:25;;;;;;;7.10;1.85;;;;;;;10.17;100.00;99778.53;5053794;28;20036;-36
2023/12/21 10:19:51;;;;;;;9.90;2.42;;;;;;;10.17;100.00;99790.16;5054115;28;20025;-36
2023/12/21 10:22:17;;;;;;;;;;;;;;;10.20;100.00;99783.41;5055085;28;20029;-36
2023/12/21 10:24:43;;;;;;;6.15;1.65;;;;;;;10.19;100.00;99782.59;5054123;28;20314;-36
2023/12/21 10:27:15;;;;;;;5.80;1.33;;;;;;;10.26;100.00;99796.78;5054331;28;20028;-36
2023/12/21 10:29:41;;;;;;;3.95;1.08;;;;;;;10.30;100.00;99794.38;5053443;28;20048;-36
2023/12/21 10:32:08;;;;;;;6.85;2.08;;;;;;;10.32;100.00;99770.63;5053745;28;20081;-36
2023/12/21 10:34:35;;;;;;;4.75;1.35;;;;;;;10.35;100.00;99759.31;5053641;28;20025;-36
2023/12/21 10:37:01;;;;;;;4.55;1.10;;;;;;;10.42;100.00;99773.41;5053643;28;20433;-36
2023/12/21 10:39:27;;;;;;;3.72;0.93;;;;;;;10.37;100.00;99756.34;5053277;28;20033;-36
2023/12/21 10:41:56;;;;;;;4.60;1.25;;;;;;;10.46;100.00;99774.53;5053399;28;20036;-36
2023/12/21 10:44:21;;;;;;;4.53;1.40;;;;;;;10.46;100.00;99771.03;5053480;28;20055;-36
2023/12/21 10:46:47;;;;;;;5.63;1.27;;;;;;;10.42;100.00;99764.50;5054330;28;20044;-36
2023/12/21 10:49:13;;;;;;;4.82;1.10;;;;;;;10.38;100.00;99749.88;5053125;28;20025;-36
2023/12/21 10:51:40;;;;;;;3.35;0.90;;;;;;;10.32;100.00;99759.81;5053787;28;20021;-36
2023/12/21 10:54:09;;;;;;;3.88;1.17;;;;;;;10.30;100.00;99770.88;5053873;28;20439;-36
2023/12/21 10:56:42;;;;;;;5.43;1.40;;;;;;;10.30;100.00;99789.81;5053683;28;20060;-36
2023/12/21 10:59:09;;;;;;;3.15;0.95;;;;;;;10.25;100.00;99767.31;5053930;28;20025;-36
2023/12/21 11:01:36;;;;;;;3.67;1.13;;;;;;;10.30;100.00;99779.00;5053404;28;20033;-36
2023/12/21 11:04:01;;;;;;;;;;;;;;;10.33;100.00;99745.22;5053800;28;20056;-36
2023/12/21 11:06:27;;;;;;;1.85;0.80;;;;;;;10.27;100.00;99762.47;5053048;28;20266;-36
2023/12/21 11:08:56;;;;;;;2.20;0.93;;;;;;;10.24;100.00;99757.56;5053533;28;20388;-36
2023/12/21 11:11:23;;;;;;;3.67;0.95;;;;;;;10.15;100.00;99724.78;5053839;28;20021;-36
2023/12/21 11:13:52;;;;;;;4.57;1.35;;;;;;;10.05;100.00;99700.34;5053209;28;20043;-36
2023/12/21 11:16:22;;;;;;;2.90;0.88;;;;;;;10.08;100.00;99718.75;5053427;28;20075;-36